Time;durP1;ratioP1;P1;durP2;ratioP2;P2;SDS_P1;SDS_P2;PMS_P1;PMS_P2;Temp;Humidity;BMP_temperature;BMP_pressure;BME280_temperature;BME280_humidity;BME280_pressure;Samples;Min_cycle;Max_cycle;Signal;HPM_P1;HPM_P2
2022/10/30 00:00:54;;;;;;;10.07;6.80;;;;;;;10.08;67.93;97743.47;4967740;28;20235;-75
2022/10/30 00:03:21;;;;;;;10.07;7.30;;;;;;;9.95;68.17;97730.09;4967291;28;20185;-75
2022/10/30 00:05:50;;;;;;;9.23;6.83;;;;;;;9.88;68.68;97735.50;4967946;28;20196;-75
2022/10/30 00:08:19;;;;;;;12.40;6.63;;;;;;;9.80;69.08;97746.94;4966938;28;20595;-77
2022/10/30 00:10:49;;;;;;;10.87;6.20;;;;;;;9.77;69.51;97739.28;4966882;28;20696;-78
2022/10/30 00:13:17;;;;;;;9.30;5.67;;;;;;;9.83;69.84;97731.31;4967003;28;20540;-78
2022/10/30 00:15:48;;;;;;;9.50;5.73;;;;;;;9.90;69.71;97724.22;4968066;28;20196;-78
2022/10/30 00:18:16;;;;;;;10.33;6.43;;;;;;;9.93;69.10;97729.31;4966330;28;20229;-77
2022/10/30 00:20:43;;;;;;;7.47;5.73;;;;;;;10.08;69.09;97715.84;4970787;28;20708;-77
2022/10/30 00:23:10;;;;;;;8.13;5.93;;;;;;;9.98;68.26;97714.47;4971717;28;20188;-78
2022/10/30 00:25:37;;;;;;;6.23;4.90;;;;;;;9.92;69.33;97726.75;4970805;28;20219;-78
2022/10/30 00:28:06;;;;;;;7.47;4.93;;;;;;;9.86;69.87;97730.38;4971948;28;20203;-77
2022/10/30 00:30:34;;;;;;;7.53;5.30;;;;;;;9.88;69.95;97719.97;4970740;28;20181;-77
2022/10/30 00:33:02;;;;;;;7.70;5.37;;;;;;;9.89;69.91;97713.91;4971584;28;20219;-79
2022/10/30 00:35:29;;;;;;;8.00;5.43;;;;;;;9.88;70.02;97714.81;4969674;28;20712;-78
2022/10/30 00:37:56;;;;;;;8.83;5.80;;;;;;;9.75;69.58;97704.00;4970772;28;20298;-77
2022/10/30 00:40:24;;;;;;;7.27;5.23;;;;;;;9.81;69.75;97709.81;4938176;28;21016;-75
2022/10/30 00:42:51;;;;;;;10.20;5.80;;;;;;;9.81;69.26;97717.59;4970531;28;20185;-75
2022/10/30 00:45:18;;;;;;;7.47;5.60;;;;;;;9.77;69.75;97717.72;4971388;28;20279;-74
2022/10/30 00:48:01;;;;;;;8.80;6.03;;;;;;;9.80;69.61;97715.91;4970082;28;20255;-75
2022/10/30 00:50:30;;;;;;;11.73;5.80;;;;;;;10.01;69.07;97713.53;4953784;28;20192;-74
2022/10/30 00:53:08;;;;;;;7.80;5.77;;;;;;;10.19;67.63;97705.19;4971107;28;20701;-76
2022/10/30 00:55:41;;;;;;;11.70;6.50;;;;;;;10.24;67.69;97698.13;4970252;28;20284;-74
2022/10/30 00:58:12;;;;;;;10.80;6.47;;;;;;;10.24;67.24;97708.47;4971213;28;20610;-75
2022/10/30 01:00:42;;;;;;;8.27;6.30;;;;;;;10.24;67.13;97690.34;4968860;28;20232;-74
2022/10/30 01:03:10;;;;;;;11.17;7.07;;;;;;;10.31;66.75;97695.25;4969758;28;20228;-75
2022/10/30 01:05:38;;;;;;;13.07;7.00;;;;;;;10.39;66.92;97692.38;4969152;28;20193;-75
2022/10/30 01:08:05;;;;;;;9.43;6.83;;;;;;;10.39;65.47;97692.38;4970583;28;20221;-75
2022/10/30 01:10:32;;;;;;;10.30;6.77;;;;;;;10.20;65.54;97692.16;4971012;28;20193;-75
2022/10/30 01:13:00;;;;;;;11.40;7.30;;;;;;;9.85;66.33;97671.75;4952511;28;20255;-74
2022/10/30 01:15:34;;;;;;;14.53;6.97;;;;;;;9.81;65.93;97673.63;4969569;28;20704;-75
2022/10/30 01:18:20;;;;;;;9.70;6.90;;;;;;;9.41;66.23;97677.53;4968269;28;20230;-74
2022/10/30 01:20:53;;;;;;;12.23;6.63;;;;;;;9.23;67.85;97676.34;4970431;28;20302;-74
2022/10/30 01:23:58;;;;;;;9.67;6.33;;;;;;;9.38;66.95;97678.47;4970478;28;20803;-74
2022/10/30 01:26:46;;;;;;;9.73;5.90;;;;;;;9.14;67.62;97678.34;4935908;28;20239;-74
2022/10/30 01:29:36;;;;;;;10.07;7.37;;;;;;;8.77;68.54;97683.75;4970562;28;20189;-74
2022/10/30 01:32:02;;;;;;;9.27;6.37;;;;;;;8.58;69.39;97679.97;4969613;28;20197;-74
2022/10/30 01:34:46;;;;;;;11.97;6.43;;;;;;;8.58;70.41;97677.41;4968377;28;20216;-75
2022/10/30 01:37:35;;;;;;;9.30;7.20;;;;;;;8.55;70.94;97668.00;4969321;28;20715;-74
2022/10/30 01:40:13;;;;;;;10.37;6.83;;;;;;;8.35;71.66;97662.53;4968395;28;20267;-74
2022/10/30 01:42:57;;;;;;;10.43;7.27;;;;;;;8.57;71.13;97666.22;4968890;28;20230;-74
2022/10/30 01:46:01;;;;;;;9.73;6.83;;;;;;;8.69;71.21;97665.91;4969260;28;20193;-74
2022/10/30 01:48:31;;;;;;;10.97;6.53;;;;;;;8.84;70.53;97656.88;4968135;28;20813;-74
2022/10/30 01:51:25;;;;;;;12.33;7.07;;;;;;;8.85;70.98;97650.81;4968738;28;20207;-74
2022/10/30 01:54:04;;;;;;;10.70;7.00;;;;;;;8.97;69.94;97659.03;4969932;28;20723;-73
2022/10/30 01:56:49;;;;;;;9.27;7.10;;;;;;;8.80;70.58;97653.50;4967737;28;20247;-73
2022/10/30 01:59:24;;;;;;;12.20;8.57;;;;;;;8.84;70.47;97651.72;4968884;28;20184;-74
2022/10/30 02:01:52;;;;;;;15.20;8.77;;;;;;;8.95;69.99;97634.13;4967831;28;20273;-74
2022/10/30 02:04:19;;;;;;;17.60;9.63;;;;;;;9.19;69.41;97648.88;4968268;28;20223;-74
2022/10/30 02:06:46;;;;;;;19.30;11.60;;;;;;;9.32;68.06;97642.47;4968448;28;20199;-74
2022/10/30 02:09:15;;;;;;;16.13;9.60;;;;;;;9.34;67.91;97645.00;4951596;28;20193;-74
2022/10/30 02:11:47;;;;;;;14.27;8.50;;;;;;;9.31;68.65;97638.19;4968676;28;20684;-75
2022/10/30 02:14:19;;;;;;;11.40;7.20;;;;;;;9.17;68.88;97636.94;4950950;28;20547;-75
2022/10/30 02:16:50;;;;;;;14.07;6.83;;;;;;;9.20;69.08;97640.25;4968180;28;20227;-74
2022/10/30 02:19:19;;;;;;;12.00;6.53;;;;;;;9.17;68.99;97648.09;4967893;28;20192;-76
2022/10/30 02:21:45;;;;;;;7.83;5.43;;;;;;;9.07;68.84;97631.19;4968987;28;20699;-75
2022/10/30 02:24:12;;;;;;;8.50;7.03;;;;;;;9.10;69.51;97644.03;4952043;28;20247;-76
2022/10/30 02:26:39;;;;;;;10.37;6.70;;;;;;;9.03;68.74;97639.91;4967273;28;20212;-76
2022/10/30 02:29:06;;;;;;;8.57;6.07;;;;;;;9.06;68.93;97649.31;4968502;28;20279;-75
2022/10/30 02:31:34;;;;;;;9.17;6.77;;;;;;;9.01;69.35;97639.97;4966984;28;20224;-74
2022/10/30 02:34:01;;;;;;;8.97;6.50;;;;;;;9.06;69.93;97645.00;4969390;28;20755;-73
2022/10/30 02:36:28;;;;;;;9.10;7.00;;;;;;;8.98;69.09;97626.31;4967414;28;20200;-75
2022/10/30 02:38:55;;;;;;;11.37;7.93;;;;;;;9.00;69.79;97640.03;4969110;28;20192;-74
2022/10/30 02:41:23;;;;;;;13.77;8.53;;;;;;;8.82;70.65;97638.00;4967653;28;20279;-74
2022/10/30 02:43:52;;;;;;;9.90;7.80;;;;;;;8.63;70.72;97618.75;4967028;28;20189;-74
2022/10/30 02:46:19;;;;;;;13.70;8.60;;;;;;;8.73;71.13;97630.50;4969164;28;20199;-75
2022/10/30 02:48:48;;;;;;;11.43;8.10;;;;;;;8.74;71.17;97627.88;4950745;28;20181;-75
2022/10/30 02:51:15;;;;;;;11.10;7.30;;;;;;;8.75;71.01;97633.88;4968012;28;20185;-74
2022/10/30 02:53:42;;;;;;;12.60;8.77;;;;;;;8.83;70.46;97642.25;4966830;28;20189;-75
2022/10/30 02:56:12;;;;;;;12.60;7.83;;;;;;;8.76;71.22;97631.25;4967435;28;20198;-74
2022/10/30 02:58:41;;;;;;;12.07;7.57;;;;;;;8.64;71.64;97635.91;4967686;28;20251;-75
2022/10/30 03:01:13;;;;;;;10.00;7.47;;;;;;;8.39;72.45;97637.53;4966869;28;20219;-74
2022/10/30 03:03:42;;;;;;;8.80;7.17;;;;;;;8.35;73.05;97634.16;4967714;28;20195;-74
2022/10/30 03:06:12;;;;;;;12.30;7.63;;;;;;;8.42;72.25;97625.38;4967876;28;20192;-74
2022/10/30 03:08:40;;;;;;;11.73;7.30;;;;;;;8.41;73.62;97630.59;4967648;28;20185;-75
2022/10/30 03:11:10;;;;;;;10.63;7.87;;;;;;;8.17;74.00;97632.91;4968183;28;20738;-75
2022/10/30 03:13:39;;;;;;;14.20;7.80;;;;;;;8.12;74.08;97631.31;4966992;28;20193;-74
2022/10/30 03:16:15;;;;;;;12.27;7.77;;;;;;;8.06;75.32;97636.63;4968587;28;20195;-74
2022/10/30 03:18:43;;;;;;;12.37;7.30;;;;;;;8.05;75.33;97640.97;4966201;28;20673;-72
2022/10/30 03:21:14;;;;;;;8.50;7.00;;;;;;;8.04;74.65;97633.25;4967027;28;20908;-75
2022/10/30 03:23:42;;;;;;;10.33;6.90;;;;;;;8.23;75.31;97630.16;4967523;28;20687;-74
2022/10/30 03:26:09;;;;;;;9.00;6.90;;;;;;;8.37;74.58;97628.94;4967164;28;20184;-72
2022/10/30 03:28:46;;;;;;;13.60;7.10;;;;;;;8.60;73.02;97639.47;4966904;28;20191;-75
2022/10/30 03:31:16;;;;;;;10.13;7.07;;;;;;;8.80;71.99;97632.00;4967757;28;20188;-73
2022/10/30 03:33:44;;;;;;;8.30;7.00;;;;;;;8.87;71.43;97639.53;4967249;28;20192;-72
2022/10/30 03:36:13;;;;;;;9.83;7.03;;;;;;;8.96;71.05;97643.59;4966049;28;20199;-73
2022/10/30 03:38:40;;;;;;;14.50;7.10;;;;;;;8.98;70.83;97641.81;4951032;28;20188;-74
2022/10/30 03:41:09;;;;;;;8.63;6.33;;;;;;;9.20;70.11;97642.00;4950009;28;20611;-73
2022/10/30 03:43:36;;;;;;;8.73;6.40;;;;;;;9.29;69.66;97631.38;4966915;28;20193;-73
2022/10/30 03:46:03;;;;;;;9.40;6.53;;;;;;;9.36;69.89;97645.78;4966623;28;21002;-73
2022/10/30 03:48:31;;;;;;;8.97;6.27;;;;;;;9.38;68.59;97625.91;4966228;28;20192;-74
2022/10/30 03:50:59;;;;;;;11.23;6.63;;;;;;;9.38;68.48;97636.25;4966907;28;20191;-74
2022/10/30 03:53:27;;;;;;;7.63;6.40;;;;;;;9.20;68.77;97636.81;4967902;28;20189;-74
2022/10/30 03:56:00;;;;;;;9.73;6.73;;;;;;;9.00;68.29;97624.53;4974568;28;20263;-74
2022/10/30 03:58:34;;;;;;;9.67;6.40;;;;;;;8.64;69.56;97628.19;4972506;28;20254;-74
2022/10/30 04:01:04;;;;;;;11.23;6.63;;;;;;;8.11;71.53;97625.34;4972883;28;20615;-74
2022/10/30 04:03:35;;;;;;;10.57;6.77;;;;;;;8.06;72.24;97637.50;4973000;28;20271;-74
2022/10/30 04:06:02;;;;;;;8.60;6.30;;;;;;;7.98;71.33;97644.59;4972338;28;20285;-74
2022/10/30 04:08:29;;;;;;;10.20;7.13;;;;;;;7.73;72.55;97648.66;4973266;28;20251;-73
2022/10/30 04:10:56;;;;;;;9.23;7.80;;;;;;;7.46;74.04;97633.88;4972091;28;20570;-74
2022/10/30 04:13:23;;;;;;;10.03;7.47;;;;;;;7.43;74.73;97633.09;4973354;28;20660;-75
2022/10/30 04:15:55;;;;;;;9.17;7.30;;;;;;;7.41;74.84;97625.41;4972087;28;20594;-74
2022/10/30 04:18:25;;;;;;;9.63;7.73;;;;;;;7.56;75.77;97630.22;4957061;28;20301;-74
2022/10/30 04:20:54;;;;;;;11.33;8.53;;;;;;;7.67;75.04;97628.19;4972904;28;20679;-74
2022/10/30 04:23:21;;;;;;;12.47;8.80;;;;;;;7.65;75.40;97629.97;4973743;28;20236;-75
2022/10/30 04:25:48;;;;;;;11.03;8.00;;;;;;;7.72;75.07;97630.66;4972966;28;20196;-74
2022/10/30 04:28:16;;;;;;;10.57;8.10;;;;;;;7.80;74.95;97621.00;4955603;28;20285;-74
2022/10/30 04:30:44;;;;;;;10.53;7.40;;;;;;;7.93;75.34;97630.13;4957162;28;20277;-74
2022/10/30 04:33:13;;;;;;;9.63;7.03;;;;;;;7.99;74.63;97622.22;4972209;28;20195;-76
2022/10/30 04:35:40;;;;;;;11.20;8.33;;;;;;;7.83;75.16;97620.94;4972783;28;20242;-74
2022/10/30 04:38:13;;;;;;;9.83;7.37;;;;;;;7.70;75.38;97632.44;4956582;28;20267;-74
2022/10/30 04:40:43;;;;;;;9.20;7.10;;;;;;;7.51;76.42;97632.03;4973208;28;20202;-73
2022/10/30 04:43:12;;;;;;;9.47;7.20;;;;;;;7.52;76.37;97636.31;4972849;28;20690;-73
2022/10/30 04:45:41;;;;;;;12.23;7.70;;;;;;;7.52;77.09;97635.47;4971807;28;20206;-73
2022/10/30 04:48:17;;;;;;;13.20;7.63;;;;;;;7.53;77.84;97630.28;4956707;28;20194;-74
2022/10/30 04:50:46;;;;;;;11.00;7.67;;;;;;;7.63;76.51;97626.56;4972131;28;20237;-74
2022/10/30 04:53:21;;;;;;;10.07;7.37;;;;;;;7.56;77.73;97617.31;4972076;28;20190;-73
2022/10/30 04:55:54;;;;;;;15.63;7.10;;;;;;;7.70;77.50;97628.13;4974139;28;20595;-73
2022/10/30 04:58:21;;;;;;;12.80;7.20;;;;;;;7.91;76.23;97627.56;4971801;28;20191;-73
2022/10/30 05:01:02;;;;;;;9.77;7.20;;;;;;;8.07;75.46;97622.88;4972822;28;20214;-74
2022/10/30 05:03:30;;;;;;;14.03;9.00;;;;;;;8.21;75.14;97638.81;4955484;28;20221;-73
2022/10/30 05:06:02;;;;;;;9.00;7.20;;;;;;;8.30;74.47;97636.03;4969373;28;20196;-74
2022/10/30 05:08:29;;;;;;;8.40;6.30;;;;;;;8.38;74.97;97638.41;4969443;28;20279;-74
2022/10/30 05:11:03;;;;;;;10.53;6.17;;;;;;;8.46;73.96;97639.88;4968779;28;20192;-73
2022/10/30 05:13:30;;;;;;;9.57;6.07;;;;;;;8.47;73.77;97635.56;4953540;28;20184;-74
2022/10/30 05:15:57;;;;;;;7.53;5.70;;;;;;;8.64;73.53;97636.78;4969629;28;20224;-75
2022/10/30 05:18:24;;;;;;;12.13;6.77;;;;;;;8.75;72.64;97639.06;4969302;28;20290;-74
2022/10/30 05:20:51;;;;;;;9.67;6.53;;;;;;;8.79;71.41;97636.34;4952559;28;20195;-74
2022/10/30 05:23:18;;;;;;;7.87;5.50;;;;;;;8.84;71.29;97649.13;4968579;28;20274;-74
2022/10/30 05:25:45;;;;;;;11.03;5.93;;;;;;;8.86;71.69;97647.34;4969140;28;20197;-73
2022/10/30 05:28:14;;;;;;;10.87;5.53;;;;;;;8.93;71.10;97648.84;4969051;28;20287;-75
2022/10/30 05:30:52;;;;;;;11.17;5.60;;;;;;;9.02;70.71;97652.00;4969688;28;20235;-74
2022/10/30 05:33:41;;;;;;;8.40;6.10;;;;;;;9.01;71.12;97646.88;4959251;28;20205;-74
2022/10/30 05:36:08;;;;;;;8.43;5.63;;;;;;;8.88;71.70;97661.06;4969191;28;20544;-78
2022/10/30 05:38:35;;;;;;;6.93;5.10;;;;;;;8.84;71.33;97652.53;4968944;28;20191;-77
2022/10/30 05:41:06;;;;;;;9.83;6.17;;;;;;;8.61;71.91;97636.03;4968410;28;20203;-77
2022/10/30 05:43:33;;;;;;;12.23;5.97;;;;;;;8.80;72.47;97660.41;4968996;28;20323;-75
2022/10/30 05:46:00;;;;;;;10.80;5.70;;;;;;;8.76;72.31;97657.06;4967758;28;20283;-78
2022/10/30 05:48:27;;;;;;;6.73;5.60;;;;;;;8.73;72.54;97635.66;4968990;28;20193;-75
2022/10/30 05:50:55;;;;;;;8.77;5.10;;;;;;;8.85;72.90;97653.38;4964405;28;20227;-76
2022/10/30 05:53:26;;;;;;;7.37;5.93;;;;;;;8.88;72.20;97650.72;4964306;28;20244;-76
2022/10/30 05:55:56;;;;;;;7.50;5.50;;;;;;;9.02;71.60;97652.00;4968304;28;20203;-80
2022/10/30 05:58:26;;;;;;;8.60;5.17;;;;;;;9.15;71.69;97655.03;4983202;28;20199;-72
2022/10/30 06:00:55;;;;;;;7.03;5.07;;;;;;;9.37;71.21;97655.25;4951916;28;20205;-75
2022/10/30 06:03:37;;;;;;;9.57;5.60;;;;;;;9.48;70.53;97648.84;4967229;28;20311;-72
2022/10/30 06:06:05;;;;;;;7.13;5.27;;;;;;;9.54;69.95;97653.00;4968593;28;20224;-74
2022/10/30 06:08:32;;;;;;;9.97;5.63;;;;;;;9.57;69.74;97648.56;4967558;28;20200;-74
2022/10/30 06:11:03;;;;;;;8.93;5.40;;;;;;;9.71;70.05;97650.69;4952099;28;20188;-73
2022/10/30 06:13:39;;;;;;;9.27;5.90;;;;;;;9.78;69.51;97652.19;4952138;28;20185;-73
2022/10/30 06:16:10;;;;;;;7.83;5.80;;;;;;;9.79;69.15;97644.38;4968270;28;20225;-72
2022/10/30 06:18:56;;;;;;;8.10;6.00;;;;;;;10.10;68.56;97651.13;4969487;28;20203;-72
2022/10/30 06:21:24;;;;;;;12.60;6.80;;;;;;;10.24;68.12;97633.41;4951813;28;20677;-73
2022/10/30 06:24:11;;;;;;;10.27;6.60;;;;;;;10.40;67.42;97629.38;4967529;28;20271;-72
2022/10/30 06:26:49;;;;;;;8.40;6.17;;;;;;;10.48;67.37;97627.34;4968237;28;20613;-72
2022/10/30 06:29:16;;;;;;;6.63;5.20;;;;;;;10.40;67.50;97619.88;4966988;28;20637;-72
2022/10/30 06:31:44;;;;;;;6.73;5.90;;;;;;;10.57;67.44;97620.09;4968192;28;20203;-73
2022/10/30 06:34:11;;;;;;;10.90;6.00;;;;;;;10.92;66.68;97623.13;4966962;28;20629;-74
2022/10/30 06:36:40;;;;;;;8.40;5.83;;;;;;;10.95;66.93;97620.41;4967611;28;20719;-73
2022/10/30 06:39:07;;;;;;;10.47;6.27;;;;;;;11.14;66.51;97616.22;4969045;28;20289;-74
2022/10/30 06:41:41;;;;;;;8.10;6.20;;;;;;;11.29;66.11;97621.63;4951066;28;20211;-74
2022/10/30 06:44:22;;;;;;;10.37;7.47;;;;;;;11.41;66.42;97615.13;4968972;28;20216;-74
2022/10/30 06:46:52;;;;;;;7.77;6.70;;;;;;;11.51;66.52;97613.88;4966520;28;20620;-76
2022/10/30 06:49:19;;;;;;;11.47;7.27;;;;;;;11.67;65.57;97621.88;4968785;28;20190;-74
2022/10/30 06:51:49;;;;;;;9.43;6.53;;;;;;;11.83;64.75;97622.97;4950614;28;20240;-74
2022/10/30 06:54:16;;;;;;;9.27;6.67;;;;;;;11.99;63.87;97624.00;4951009;28;20187;-74
2022/10/30 06:56:50;;;;;;;10.33;7.10;;;;;;;12.20;63.39;97613.53;4968303;28;20197;-72
2022/10/30 06:59:29;;;;;;;11.60;6.90;;;;;;;12.36;62.47;97615.50;4965897;28;20192;-73
2022/10/30 07:02:12;;;;;;;9.50;7.00;;;;;;;12.61;61.15;97619.53;4971315;28;20743;-74
2022/10/30 07:04:55;;;;;;;12.47;7.17;;;;;;;12.78;61.10;97610.97;4934518;28;20256;-73
2022/10/30 07:07:23;;;;;;;10.70;7.33;;;;;;;12.80;60.12;97620.38;4967047;28;20196;-74
2022/10/30 07:09:50;;;;;;;9.47;6.90;;;;;;;12.95;60.11;97624.06;4967204;28;20195;-73
2022/10/30 07:12:22;;;;;;;12.37;7.47;;;;;;;13.09;59.45;97611.28;4950396;28;20759;-72
2022/10/30 07:14:59;;;;;;;8.90;7.60;;;;;;;13.35;62.33;97613.53;4967046;28;21049;-73
2022/10/30 07:18:05;;;;;;;11.73;9.27;;;;;;;13.35;58.91;97591.88;4895493;29;20280;-73
2022/10/30 07:20:36;;;;;;;11.20;7.23;;;;;;;13.53;58.88;97607.44;4889197;29;20288;-74
2022/10/30 07:23:04;;;;;;;11.83;7.23;;;;;;;13.83;58.03;97605.91;4908880;29;20311;-74
2022/10/30 07:25:31;;;;;;;12.27;7.40;;;;;;;13.96;57.53;97590.53;4929238;29;20207;-73
2022/10/30 07:28:24;;;;;;;8.70;5.57;;;;;;;14.01;57.12;97593.75;4929239;29;20224;-74
2022/10/30 07:31:11;;;;;;;11.23;6.50;;;;;;;14.04;56.76;97592.75;4930212;29;20200;-67
2022/10/30 07:34:01;;;;;;;7.47;6.10;;;;;;;14.17;56.85;97599.03;4936217;29;20638;-73
2022/10/30 07:36:46;;;;;;;15.67;6.17;;;;;;;14.19;56.11;97595.44;4929990;29;20204;-75
2022/10/30 07:39:34;;;;;;;6.50;5.30;;;;;;;14.26;56.30;97588.97;4928074;29;20193;-75
2022/10/30 07:42:22;;;;;;;6.20;5.60;;;;;;;14.58;55.19;97592.53;4927605;29;20221;-76
2022/10/30 07:45:05;;;;;;;5.77;4.90;;;;;;;14.47;54.90;97585.28;4929832;29;20199;-77
2022/10/30 07:47:52;;;;;;;5.23;4.53;;;;;;;14.62;54.36;97594.91;4943158;29;20186;-73
2022/10/30 07:50:33;;;;;;;8.27;5.07;;;;;;;14.79;54.49;97580.97;4943929;29;20700;-74
2022/10/30 07:53:00;;;;;;;10.03;4.90;;;;;;;14.98;53.88;97573.81;4929512;29;20244;-74
2022/10/30 07:55:30;;;;;;;10.43;5.27;;;;;;;15.15;52.97;97565.06;4927511;29;20190;-74
2022/10/30 07:58:17;;;;;;;7.87;4.83;;;;;;;15.37;52.36;97581.22;4928105;29;20260;-74
2022/10/30 08:01:10;;;;;;;10.37;5.13;;;;;;;15.60;52.23;97572.94;4939390;29;20208;-74
2022/10/30 08:03:37;;;;;;;11.87;6.23;;;;;;;15.60;51.85;97572.94;4929176;29;20283;-74
2022/10/30 08:06:10;;;;;;;12.47;6.00;;;;;;;15.88;51.45;97572.22;4927496;29;20264;-74
2022/10/30 08:08:37;;;;;;;13.00;6.10;;;;;;;15.99;51.14;97565.41;4943039;29;20186;-74
2022/10/30 08:11:29;;;;;;;12.77;5.67;;;;;;;16.17;50.40;97569.56;4927752;29;20223;-73
2022/10/30 08:13:58;;;;;;;13.37;6.07;;;;;;;16.35;50.09;97559.78;4928590;29;20233;-72
2022/10/30 08:16:25;;;;;;;8.73;4.57;;;;;;;16.50;49.39;97555.44;4929628;29;20198;-72
2022/10/30 08:18:53;;;;;;;14.37;5.10;;;;;;;16.65;48.43;97562.34;4962453;28;20296;-71
2022/10/30 08:21:23;;;;;;;13.40;5.00;;;;;;;16.75;48.01;97553.84;4962444;28;20225;-72
2022/10/30 08:23:57;;;;;;;7.60;4.83;;;;;;;16.56;48.53;97544.59;4963606;28;20229;-75
2022/10/30 08:26:27;;;;;;;9.23;4.30;;;;;;;16.84;49.67;97544.53;4946382;29;20221;-73
2022/10/30 08:28:53;;;;;;;8.00;4.70;;;;;;;17.01;47.57;97552.19;4963485;28;20232;-76
2022/10/30 08:31:23;;;;;;;8.43;4.77;;;;;;;17.20;47.42;97542.25;4940907;29;20277;-75
2022/10/30 08:34:10;;;;;;;5.67;2.90;;;;;;;17.17;46.11;97539.81;4932186;29;20214;-73
2022/10/30 08:36:50;;;;;;;3.47;3.13;;;;;;;17.23;45.89;97541.22;4924547;29;20192;-75
2022/10/30 08:39:18;;;;;;;4.90;3.57;;;;;;;17.24;46.13;97538.47;4907627;29;20687;-74
2022/10/30 08:42:17;;;;;;;7.40;2.90;;;;;;;17.42;45.81;97545.16;4922466;29;20219;-73
2022/10/30 08:44:45;;;;;;;10.77;3.60;;;;;;;17.53;45.08;97545.31;4911284;29;20282;-75
2022/10/30 08:47:30;;;;;;;10.47;3.50;;;;;;;17.53;45.24;97547.94;4912943;29;20205;-74
2022/10/30 08:49:57;;;;;;;8.83;3.40;;;;;;;17.68;44.79;97543.47;4928261;29;20554;-74
2022/10/30 08:52:29;;;;;;;11.37;4.60;;;;;;;17.77;44.59;97532.38;4926560;29;20202;-75
2022/10/30 08:54:56;;;;;;;9.37;3.83;;;;;;;17.91;44.51;97536.72;4927759;29;20650;-74
2022/10/30 08:57:26;;;;;;;5.83;3.23;;;;;;;18.01;44.07;97540.41;4910755;29;20633;-73
2022/10/30 08:59:55;;;;;;;3.50;2.77;;;;;;;17.99;43.59;97526.56;4927645;29;20555;-73
2022/10/30 09:02:55;;;;;;;6.10;3.23;;;;;;;18.09;43.96;97524.97;4922389;29;20323;-75
2022/10/30 09:05:41;;;;;;;4.43;2.50;;;;;;;18.20;43.46;97525.91;4926559;29;20199;-74
2022/10/30 09:08:28;;;;;;;8.33;2.93;;;;;;;18.27;43.08;97527.19;4921082;29;20275;-71
2022/10/30 09:11:05;;;;;;;7.23;3.20;;;;;;;18.52;42.36;97521.13;4927402;29;20201;-74
2022/10/30 09:13:32;;;;;;;7.57;2.90;;;;;;;18.58;41.99;97526.78;4910887;29;20644;-75
2022/10/30 09:16:02;;;;;;;5.33;2.93;;;;;;;18.58;41.82;97503.16;4927658;29;20187;-75
2022/10/30 09:18:32;;;;;;;4.67;2.90;;;;;;;18.71;41.65;97513.66;4923183;29;20227;-74
2022/10/30 09:20:59;;;;;;;7.83;3.20;;;;;;;18.89;41.49;97512.34;4927730;29;20781;-76
2022/10/30 09:23:34;;;;;;;15.20;4.17;;;;;;;18.93;41.18;97513.78;4926710;29;20235;-73
2022/10/30 09:26:24;;;;;;;4.73;2.70;;;;;;;18.96;41.05;97508.31;4919058;29;20201;-74
2022/10/30 09:28:58;;;;;;;4.27;2.63;;;;;;;19.00;41.12;97495.81;4928598;29;20196;-76
2022/10/30 09:31:45;;;;;;;6.37;2.73;;;;;;;19.21;40.28;97502.13;4919196;29;20337;-75
2022/10/30 09:34:16;;;;;;;4.13;2.63;;;;;;;19.22;40.20;97478.41;4946735;29;20402;-73
2022/10/30 09:36:56;;;;;;;3.90;2.60;;;;;;;19.42;40.23;97482.19;4946049;28;20190;-73
2022/10/30 09:39:24;;;;;;;5.07;3.20;;;;;;;19.53;39.88;97476.16;4945646;29;20713;-73
2022/10/30 09:42:03;;;;;;;6.13;3.13;;;;;;;19.52;40.00;97469.19;4946564;29;20196;-74
2022/10/30 09:44:41;;;;;;;8.73;3.50;;;;;;;19.64;40.35;97470.94;4944753;29;20259;-73
2022/10/30 09:47:23;;;;;;;6.77;3.97;;;;;;;19.72;39.35;97468.56;4931456;29;20283;-75
2022/10/30 09:49:59;;;;;;;6.00;3.13;;;;;;;19.88;39.13;97467.28;4945678;29;20189;-76
2022/10/30 09:52:31;;;;;;;9.00;3.63;;;;;;;19.94;39.01;97463.34;4944822;28;20192;-73
2022/10/30 09:55:09;;;;;;;7.40;2.63;;;;;;;19.97;39.05;97463.13;4946152;28;20189;-76
2022/10/30 09:57:56;;;;;;;5.00;3.50;;;;;;;20.12;38.63;97454.88;4930043;29;20281;-76
2022/10/30 10:00:33;;;;;;;8.73;3.73;;;;;;;20.30;38.77;97447.38;4945776;29;20236;-75
2022/10/30 10:03:23;;;;;;;6.70;4.20;;;;;;;20.41;37.53;97442.13;4945813;28;20707;-74
2022/10/30 10:06:23;;;;;;;6.17;2.57;;;;;;;20.48;37.27;97435.44;4930000;29;20213;-75
2022/10/30 10:09:08;;;;;;;8.73;3.27;;;;;;;20.61;37.46;97436.13;4929724;29;20201;-73
2022/10/30 10:12:41;;;;;;;3.67;2.27;;;;;;;20.63;36.86;97415.78;4947946;29;20200;-74
2022/10/30 10:15:46;;;;;;;4.20;2.37;;;;;;;20.78;36.89;97427.72;4946468;29;20226;-73
2022/10/30 10:18:38;;;;;;;3.50;2.30;;;;;;;20.87;36.74;97415.63;4959168;28;20232;-73
2022/10/30 10:21:24;;;;;;;6.60;3.03;;;;;;;20.91;36.75;97407.34;4961804;28;20201;-73
2022/10/30 10:23:54;;;;;;;4.57;2.90;;;;;;;21.05;36.58;97417.63;4950642;28;20224;-74
2022/10/30 10:26:40;;;;;;;3.20;2.47;;;;;;;21.11;36.59;97407.53;4952495;28;20229;-74
2022/10/30 10:29:25;;;;;;;5.57;2.60;;;;;;;21.17;36.42;97409.66;4969349;28;20208;-73
2022/10/30 10:32:27;;;;;;;17.57;3.67;;;;;;;21.24;36.63;97409.03;4968336;28;20231;-73
2022/10/30 10:35:18;;;;;;;13.20;3.03;;;;;;;21.34;36.78;97395.94;4967378;28;20205;-73
2022/10/30 10:37:54;;;;;;;11.80;3.93;;;;;;;21.56;36.55;97391.38;4968570;28;20239;-76
2022/10/30 10:40:30;;;;;;;12.70;3.23;;;;;;;21.52;36.22;97381.22;4968402;28;20200;-75
2022/10/30 10:43:24;;;;;;;6.50;3.40;;;;;;;21.65;36.22;97389.78;4969388;28;20315;-73
2022/10/30 10:46:03;;;;;;;5.70;2.37;;;;;;;21.70;36.31;97385.78;4970241;28;20193;-75
2022/10/30 10:48:47;;;;;;;9.37;3.03;;;;;;;21.77;36.28;97378.19;4971703;28;20221;-72
2022/10/30 10:51:23;;;;;;;7.83;3.00;;;;;;;21.65;36.88;97384.50;4969034;28;20273;-74
2022/10/30 10:54:13;;;;;;;4.33;2.63;;;;;;;21.76;36.41;97368.63;4950459;28;20272;-73
2022/10/30 10:56:44;;;;;;;8.33;2.73;;;;;;;21.86;36.02;97375.63;4951570;28;20755;-73
2022/10/30 10:59:19;;;;;;;8.60;2.57;;;;;;;21.93;36.02;97373.28;4969208;28;20185;-77
2022/10/30 11:02:13;;;;;;;5.47;2.27;;;;;;;21.98;35.43;97365.84;4968111;28;20204;-76
2022/10/30 11:04:49;;;;;;;5.63;2.20;;;;;;;22.01;35.46;97365.56;4967062;28;20238;-77
2022/10/30 11:07:47;;;;;;;3.10;2.53;;;;;;;22.07;35.75;97365.03;4968008;28;20320;-77
2022/10/30 11:10:16;;;;;;;4.63;2.20;;;;;;;22.15;35.28;97354.66;4967426;28;20203;-75
2022/10/30 11:12:43;;;;;;;3.03;1.97;;;;;;;22.30;35.38;97361.22;4949723;29;20199;-76
2022/10/30 11:15:36;;;;;;;5.27;2.57;;;;;;;22.39;35.56;97355.16;4960424;28;20195;-78
2022/10/30 11:18:08;;;;;;;4.97;2.40;;;;;;;22.37;35.53;97349.16;4949434;28;20639;-73
2022/10/30 11:20:38;;;;;;;5.20;2.10;;;;;;;22.42;35.12;97348.78;4967579;28;20270;-74
2022/10/30 11:23:29;;;;;;;3.70;2.10;;;;;;;22.40;35.43;97346.25;4980135;28;20918;-76
2022/10/30 11:25:56;;;;;;;4.93;2.33;;;;;;;22.50;35.44;97343.66;4956800;28;20302;-75
2022/10/30 11:28:51;;;;;;;3.67;2.33;;;;;;;22.58;35.03;97331.47;4967298;28;20295;-78
2022/10/30 11:31:26;;;;;;;5.17;2.67;;;;;;;22.64;34.75;97332.72;4951233;28;20208;-80
2022/10/30 11:33:53;;;;;;;5.63;2.70;;;;;;;22.74;34.73;97330.91;4967483;28;20205;-72
2022/10/30 11:36:25;;;;;;;4.87;2.20;;;;;;;22.72;35.02;97332.03;4967726;28;20592;-76
2022/10/30 11:39:07;;;;;;;7.43;2.20;;;;;;;22.80;34.61;97322.44;4967597;28;20212;-73
2022/10/30 11:41:34;;;;;;;5.20;2.17;;;;;;;22.88;34.38;97325.22;4967120;28;20194;-72
2022/10/30 11:44:01;;;;;;;4.13;2.00;;;;;;;22.97;33.89;97323.56;4966512;28;20239;-73
2022/10/30 11:46:28;;;;;;;5.23;2.50;;;;;;;22.95;34.31;97315.78;4967185;28;20682;-70
2022/10/30 11:48:55;;;;;;;8.23;2.07;;;;;;;22.84;34.47;97307.13;4968126;28;20667;-72
2022/10/30 11:51:36;;;;;;;3.73;1.90;;;;;;;22.98;34.75;97317.31;4975881;28;20275;-72
2022/10/30 11:54:03;;;;;;;4.43;2.00;;;;;;;22.93;34.83;97311.59;4986354;28;20192;-74
2022/10/30 11:56:32;;;;;;;7.27;2.17;;;;;;;22.92;34.85;97305.47;4970450;28;20258;-71
2022/10/30 11:59:02;;;;;;;6.97;2.10;;;;;;;23.01;34.50;97309.09;4985114;28;20585;-74
2022/10/30 12:01:30;;;;;;;6.37;3.00;;;;;;;;;;4986168;28;20299;-78
2022/10/30 12:04:13;;;;;;;7.90;3.13;;;;;;;23.11;34.18;97299.34;4987128;28;20750;-76
2022/10/30 12:06:40;;;;;;;3.67;2.10;;;;;;;23.07;34.07;97290.03;4987400;28;20670;-76